createdAt,value
2018-01-07T00:00:11.830Z,98187.65
2018-01-07T00:02:42.198Z,98193.86
2018-01-07T00:05:12.048Z,98190.64
2018-01-07T00:07:41.968Z,98196.50
2018-01-07T00:10:11.832Z,98195.36
2018-01-07T00:12:41.761Z,98202.91
2018-01-07T00:15:11.451Z,98202.14
2018-01-07T00:17:41.024Z,98205.59
2018-01-07T00:20:10.740Z,98205.18
2018-01-07T00:22:40.649Z,98209.75
2018-01-07T00:25:10.572Z,98204.61
2018-01-07T00:27:40.629Z,98204.67
2018-01-07T00:30:10.779Z,98211.84
2018-01-07T00:32:40.687Z,98208.45
2018-01-07T00:35:10.520Z,98217.51
2018-01-07T00:37:40.343Z,98218.12
2018-01-07T00:40:10.282Z,98227.94
2018-01-07T00:42:40.712Z,98225.97
2018-01-07T00:45:10.750Z,98233.17
2018-01-07T00:47:40.523Z,98242.58
2018-01-07T00:50:10.680Z,98245.19
2018-01-07T00:52:41.032Z,98247.84
2018-01-07T00:55:10.911Z,98251.63
2018-01-07T00:57:40.814Z,98247.47
2018-01-07T01:00:12.018Z,98247.32
2018-01-07T01:02:42.513Z,98250.91
2018-01-07T01:05:12.326Z,98251.98
2018-01-07T01:07:42.280Z,98252.01
2018-01-07T01:10:12.159Z,98256.33
2018-01-07T01:12:41.986Z,98260.74
2018-01-07T01:15:13.535Z,98268.67
2018-01-07T01:17:43.367Z,98268.80
2018-01-07T01:20:13.182Z,98278.26
2018-01-07T01:22:43.030Z,98273.52
2018-01-07T01:25:12.890Z,98271.43
2018-01-07T01:27:42.813Z,98272.21
2018-01-07T01:30:12.680Z,98268.86
2018-01-07T01:32:42.555Z,98275.24
2018-01-07T01:35:12.677Z,98274.21
2018-01-07T01:37:43.054Z,98278.99
2018-01-07T01:40:13.250Z,98285.33
2018-01-07T01:42:43.123Z,98284.38
2018-01-07T01:45:14.750Z,98293.16
2018-01-07T01:47:44.802Z,98305.62
2018-01-07T01:50:14.700Z,98317.45
2018-01-07T01:52:45.122Z,98322.59
2018-01-07T01:55:15.125Z,98323.31
2018-01-07T01:57:45.327Z,98325.98
2018-01-07T02:00:15.234Z,98331.45
2018-01-07T02:02:44.911Z,98333.61
2018-01-07T02:05:14.719Z,98334.23
2018-01-07T02:07:45.065Z,98335.46
2018-01-07T02:20:32.328Z,98342.38
2018-01-07T02:23:08.855Z,98345.28
2018-01-07T02:25:38.464Z,98355.10
2018-01-07T02:28:08.360Z,98357.16
2018-01-07T02:30:37.852Z,98353.73
2018-01-07T02:33:07.733Z,98358.77
2018-01-07T02:35:37.401Z,98353.53
2018-01-07T02:38:07.292Z,98357.23
2018-01-07T02:40:37.117Z,98363.59
2018-01-07T02:43:06.954Z,98359.62
2018-01-07T02:45:36.779Z,98360.06
2018-01-07T02:48:06.701Z,98361.78
2018-01-07T02:50:36.594Z,98350.86
2018-01-07T02:53:06.437Z,98357.02
2018-01-07T02:55:36.239Z,98358.34
2018-01-07T02:58:06.111Z,98367.79
2018-01-07T03:00:35.953Z,98371.31
2018-01-07T03:03:06.227Z,98377.04
2018-01-07T03:05:36.095Z,98373.29
2018-01-07T03:08:05.937Z,98372.56
2018-01-07T03:10:35.881Z,98374.46
2018-01-07T03:13:05.739Z,98381.44
2018-01-07T03:15:35.625Z,98362.77
2018-01-07T03:18:05.435Z,98372.79
2018-01-07T03:20:35.894Z,98370.63
2018-01-07T03:23:05.749Z,98378.56
2018-01-07T03:25:35.559Z,98381.58
2018-01-07T03:28:05.502Z,98379.27
2018-01-07T03:30:35.305Z,98387.19
2018-01-07T03:33:05.982Z,98386.39
2018-01-07T03:35:36.355Z,98396.23
2018-01-07T03:38:06.256Z,98393.28
2018-01-07T03:40:36.255Z,98399.66
2018-01-07T03:43:06.148Z,98400.95
2018-01-07T03:48:38.223Z,98400.05
2018-01-07T03:51:08.127Z,98407.52
2018-01-07T03:53:37.923Z,98406.46
2018-01-07T03:56:07.726Z,98410.61
2018-01-07T03:58:37.365Z,98414.02
2018-01-07T04:01:07.234Z,98409.87
2018-01-07T04:03:37.571Z,98406.41
2018-01-07T04:06:07.468Z,98419.30
2018-01-07T04:08:37.353Z,98413.84
2018-01-07T04:11:07.212Z,98416.17
2018-01-07T04:13:37.006Z,98415.63
2018-01-07T04:16:06.852Z,98415.90
2018-01-07T04:18:37.083Z,98422.01
2018-01-07T04:21:06.912Z,98433.16
2018-01-07T04:23:43.206Z,98435.38
2018-01-07T04:26:14.088Z,98443.77
2018-01-07T04:28:44.029Z,98445.69
2018-01-07T04:31:13.877Z,98447.97
2018-01-07T04:33:43.766Z,98451.94
2018-01-07T04:36:13.609Z,98461.63
2018-01-07T04:38:43.158Z,98458.02
2018-01-07T04:41:12.980Z,98462.72
2018-01-07T04:43:42.798Z,98466.22
2018-01-07T04:46:12.635Z,98461.71
2018-01-07T04:48:42.506Z,98469.39
2018-01-07T04:51:12.309Z,98474.06
2018-01-07T04:53:42.144Z,98479.81
2018-01-07T04:56:11.972Z,98490.00
2018-01-07T04:58:41.833Z,98497.48
2018-01-07T05:01:11.668Z,98496.45
2018-01-07T05:03:41.492Z,98485.97
2018-01-07T05:06:11.314Z,98496.80
2018-01-07T05:08:41.129Z,98499.84
2018-01-07T05:11:10.949Z,98496.53
2018-01-07T05:13:40.840Z,98495.45
2018-01-07T05:16:10.690Z,98495.86
2018-01-07T05:18:40.547Z,98492.49
2018-01-07T05:21:11.593Z,98495.29
2018-01-07T05:23:41.873Z,98502.98
2018-01-07T05:26:11.948Z,98506.55
2018-01-07T05:28:41.740Z,98495.53
2018-01-07T05:31:11.711Z,98514.87
2018-01-07T05:33:41.574Z,98515.95
2018-01-07T05:36:11.418Z,98513.63
2018-01-07T05:38:41.368Z,98517.75
2018-01-07T05:41:11.213Z,98524.83
2018-01-07T05:43:41.131Z,98530.07
2018-01-07T05:46:11.215Z,98530.05
2018-01-07T05:48:41.141Z,98537.02
2018-01-07T05:51:11.038Z,98530.91
2018-01-07T05:53:41.187Z,98533.81
2018-01-07T05:56:11.029Z,98531.16
2018-01-07T05:58:41.538Z,98530.32
2018-01-07T06:01:11.332Z,98529.17
2018-01-07T06:03:41.890Z,98536.85
2018-01-07T06:06:14.008Z,98536.88
2018-01-07T06:08:43.831Z,98543.03
2018-01-07T06:11:13.725Z,98547.45
2018-01-07T06:13:43.558Z,98554.48
2018-01-07T06:16:13.428Z,98555.00
2018-01-07T06:18:43.356Z,98559.49
2018-01-07T06:21:13.278Z,98567.13
2018-01-07T06:23:43.191Z,98570.00
2018-01-07T06:26:13.048Z,98576.86
2018-01-07T06:28:43.104Z,98574.90
2018-01-07T06:31:13.365Z,98585.89
2018-01-07T06:33:43.211Z,98590.67
2018-01-07T06:36:13.276Z,98590.23
2018-01-07T06:38:43.133Z,98582.66
2018-01-07T06:41:13.027Z,98584.12
2018-01-07T06:46:16.759Z,98589.00
2018-01-07T06:48:46.697Z,98600.73
2018-01-07T06:51:17.081Z,98610.66
2018-01-07T06:53:47.485Z,98616.28
2018-01-07T06:58:52.048Z,98627.72
2018-01-07T07:01:21.890Z,98627.70
2018-01-07T07:03:54.086Z,98634.52
2018-01-07T07:06:25.097Z,98648.88
2018-01-07T07:08:55.667Z,98657.64
2018-01-07T07:11:25.486Z,98656.13
2018-01-07T07:13:55.850Z,98660.13
2018-01-07T07:16:26.237Z,98663.30
2018-01-07T07:18:56.327Z,98666.19
2018-01-07T07:21:26.904Z,98675.72
2018-01-07T07:23:57.582Z,98677.98
2018-01-07T07:26:29.109Z,98684.10
2018-01-07T07:31:32.899Z,98693.45
2018-01-07T07:34:03.246Z,98701.83
2018-01-07T07:36:33.250Z,98701.93
2018-01-07T07:39:03.977Z,98696.73
2018-01-07T07:41:35.255Z,98702.98
2018-01-07T07:44:07.006Z,98713.22
2018-01-07T07:46:37.268Z,98715.89
2018-01-07T07:49:07.117Z,98722.77
2018-01-07T07:51:37.262Z,98731.69
2018-01-07T07:54:07.166Z,98731.08
2018-01-07T07:56:37.748Z,98732.73
2018-01-07T07:59:07.721Z,98732.30
2018-01-07T08:01:37.816Z,98739.48
2018-01-07T08:04:08.163Z,98741.92
2018-01-07T08:06:40.177Z,98734.23
2018-01-07T08:09:09.974Z,98729.77
2018-01-07T08:11:39.777Z,98725.92
2018-01-07T08:14:09.834Z,98734.48
2018-01-07T08:16:39.653Z,98732.52
2018-01-07T08:19:10.293Z,98736.77
2018-01-07T08:21:40.130Z,98735.84
2018-01-07T08:24:09.957Z,98734.38
2018-01-07T08:26:39.741Z,98731.41
2018-01-07T08:33:31.428Z,98726.86
2018-01-07T08:51:10.824Z,98732.26
2018-01-07T08:53:40.674Z,98733.75
2018-01-07T08:56:11.312Z,98744.94
2018-01-07T08:58:42.002Z,98755.27
2018-01-07T09:01:12.192Z,98758.41
2018-01-07T09:03:42.334Z,98760.64
2018-01-07T09:06:13.343Z,98754.55
2018-01-07T09:08:43.279Z,98751.94
2018-01-07T09:11:14.255Z,98754.94
2018-01-07T09:13:44.081Z,98769.43
2018-01-07T09:16:13.915Z,98764.19
2018-01-07T09:18:44.366Z,98772.03
2018-01-07T09:21:14.319Z,98769.94
2018-01-07T09:23:43.695Z,98771.94
2018-01-07T09:26:13.398Z,98770.46
2018-01-07T09:28:42.962Z,98776.38
2018-01-07T09:31:12.743Z,98775.25
2018-01-07T09:33:42.441Z,98770.34
2018-01-07T09:36:12.156Z,98769.45
2018-01-07T09:38:42.007Z,98768.40
2018-01-07T09:41:11.805Z,98768.97
2018-01-07T09:43:41.599Z,98775.02
2018-01-07T09:46:11.962Z,98766.09
2018-01-07T09:48:42.239Z,98762.97
2018-01-07T09:51:11.726Z,98767.95
2018-01-07T09:53:42.177Z,98776.66
2018-01-07T09:56:11.948Z,98775.88
2018-01-07T09:58:41.782Z,98776.45
2018-01-07T10:01:15.585Z,98779.30
2018-01-07T10:03:46.080Z,98787.20
2018-01-07T10:06:15.972Z,98793.02
2018-01-07T10:08:45.816Z,98795.06
2018-01-07T10:11:16.047Z,98798.22
2018-01-07T10:13:46.406Z,98790.08
2018-01-07T10:16:16.320Z,98794.87
2018-01-07T10:18:46.302Z,98789.24
2018-01-07T10:21:16.112Z,98786.38
2018-01-07T10:23:46.445Z,98787.41
2018-01-07T10:26:21.489Z,98784.00
2018-01-07T10:28:51.463Z,98793.66
2018-01-07T10:31:21.265Z,98796.45
2018-01-07T10:33:51.099Z,98805.04
2018-01-07T10:36:21.038Z,98805.73
2018-01-07T10:38:50.868Z,98796.89
2018-01-07T10:41:20.844Z,98786.54
2018-01-07T10:43:51.024Z,98785.28
2018-01-07T10:46:21.236Z,98779.48
2018-01-07T10:48:51.141Z,98770.44
2018-01-07T10:51:20.945Z,98770.00
2018-01-07T10:53:50.979Z,98762.62
2018-01-07T10:56:23.251Z,98765.73
2018-01-07T10:58:53.074Z,98760.84
2018-01-07T11:01:28.545Z,98758.37
2018-01-07T11:03:58.738Z,98765.14
2018-01-07T11:06:28.998Z,98773.87
2018-01-07T11:08:58.867Z,98788.42
2018-01-07T11:11:28.798Z,98783.58
2018-01-07T11:13:58.666Z,98785.20
2018-01-07T11:16:28.491Z,98776.95
2018-01-07T11:18:58.670Z,98776.06
2018-01-07T11:21:28.504Z,98770.70
2018-01-07T11:23:58.353Z,98767.72
2018-01-07T11:26:28.279Z,98766.44
2018-01-07T11:28:58.970Z,98764.55
2018-01-07T11:31:29.109Z,98758.45
2018-01-07T11:33:59.666Z,98747.68
2018-01-07T11:36:29.683Z,98749.10
2018-01-07T11:38:59.514Z,98741.14
2018-01-07T11:41:29.878Z,98745.80
2018-01-07T11:44:00.422Z,98747.17
2018-01-07T11:46:29.955Z,98741.75
2018-01-07T11:48:59.779Z,98740.41
2018-01-07T11:51:29.606Z,98738.88
2018-01-07T11:53:59.408Z,98744.76
2018-01-07T11:56:30.072Z,98746.50
2018-01-07T11:58:59.936Z,98748.38
2018-01-07T12:01:29.749Z,98752.85
2018-01-07T12:04:00.199Z,98754.67
2018-01-07T12:06:29.906Z,98754.44
2018-01-07T12:09:00.002Z,98760.14
2018-01-07T12:11:29.847Z,98761.55
2018-01-07T12:13:59.717Z,98774.92
2018-01-07T12:16:29.578Z,98782.39
2018-01-07T12:18:59.418Z,98797.07
2018-01-07T12:21:29.538Z,98808.28
2018-01-07T12:23:59.338Z,98813.39
2018-01-07T12:26:29.433Z,98817.80
2018-01-07T12:28:59.244Z,98814.30
2018-01-07T12:31:29.150Z,98824.99
2018-01-07T12:33:59.517Z,98829.63
2018-01-07T12:36:29.634Z,98826.75
2018-01-07T12:38:59.509Z,98831.59
2018-01-07T12:41:29.316Z,98833.05
2018-01-07T12:43:59.357Z,98826.25
2018-01-07T12:46:29.172Z,98822.94
2018-01-07T12:48:58.983Z,98822.40
2018-01-07T12:51:28.777Z,98819.66
2018-01-07T12:53:58.573Z,98821.18
2018-01-07T12:56:28.520Z,98825.45
2018-01-07T12:58:58.469Z,98814.53
2018-01-07T13:01:28.306Z,98815.94
2018-01-07T13:03:58.091Z,98809.09
2018-01-07T13:06:27.922Z,98807.06
2018-01-07T13:08:57.741Z,98808.19
2018-01-07T13:11:27.552Z,98806.70
2018-01-07T13:13:57.765Z,98814.98
2018-01-07T13:16:27.553Z,98812.77
2018-01-07T13:18:57.386Z,98815.91
2018-01-07T13:21:27.215Z,98819.42
2018-01-07T13:23:57.041Z,98810.14
2018-01-07T13:26:26.853Z,98818.88
2018-01-07T13:28:57.548Z,98823.67
2018-01-07T13:31:27.371Z,98821.81
2018-01-07T13:33:57.205Z,98817.38
2018-01-07T13:36:27.009Z,98818.41
2018-01-07T13:38:56.807Z,98817.10
2018-01-07T13:41:26.657Z,98819.86
2018-01-07T13:43:56.477Z,98824.52
2018-01-07T13:46:26.306Z,98821.58
2018-01-07T13:48:56.207Z,98829.28
2018-01-07T13:51:26.099Z,98839.08
2018-01-07T13:53:55.904Z,98838.28
2018-01-07T13:56:26.127Z,98852.64
2018-01-07T13:58:56.180Z,98852.58
2018-01-07T14:01:26.116Z,98864.47
2018-01-07T14:03:55.684Z,98863.13
2018-01-07T14:06:25.540Z,98870.94
2018-01-07T14:08:55.568Z,98866.22
2018-01-07T14:11:25.560Z,98867.63
2018-01-07T14:13:55.384Z,98865.66
2018-01-07T14:16:25.195Z,98869.05
2018-01-07T14:18:54.996Z,98869.34
2018-01-07T14:21:24.918Z,98866.35
2018-01-07T14:23:54.737Z,98874.03
2018-01-07T14:26:24.289Z,98880.31
2018-01-07T14:28:54.165Z,98882.05
2018-01-07T14:31:24.594Z,98879.89
2018-01-07T14:33:54.418Z,98880.78
2018-01-07T14:36:25.019Z,98885.69
2018-01-07T14:38:54.847Z,98883.41
2018-01-07T14:41:25.260Z,98883.27
2018-01-07T14:43:55.128Z,98884.91
2018-01-07T14:46:24.782Z,98895.37
2018-01-07T14:48:54.772Z,98891.47
2018-01-07T14:51:24.617Z,98893.81
2018-01-07T14:53:54.405Z,98891.81
2018-01-07T14:56:25.761Z,98899.27
2018-01-07T14:58:55.715Z,98901.47
2018-01-07T15:01:25.565Z,98913.51
2018-01-07T15:03:55.557Z,98914.86
2018-01-07T15:06:25.406Z,98921.29
2018-01-07T15:08:55.579Z,98917.02
2018-01-07T15:11:26.161Z,98923.06
2018-01-07T15:13:56.361Z,98929.53
2018-01-07T15:16:26.238Z,98936.09
2018-01-07T15:18:56.100Z,98946.38
2018-01-07T15:21:26.808Z,98951.23
2018-01-07T15:23:56.776Z,98952.23
2018-01-07T15:26:26.744Z,98947.31
2018-01-07T15:28:56.976Z,98936.67
2018-01-07T15:31:27.542Z,98931.66
2018-01-07T15:33:58.074Z,98938.23
2018-01-07T15:36:28.645Z,98932.45
2018-01-07T15:38:58.472Z,98941.09
2018-01-07T15:41:28.298Z,98940.98
2018-01-07T15:43:58.224Z,98934.19
2018-01-07T15:46:28.083Z,98947.08
2018-01-07T15:48:58.128Z,98950.36
2018-01-07T15:51:28.037Z,98944.56
2018-01-07T15:53:57.924Z,98953.27
2018-01-07T15:56:28.229Z,98946.72
2018-01-07T15:58:58.096Z,98948.54
2018-01-07T16:01:27.953Z,98934.56
2018-01-07T16:03:57.806Z,98937.83
2018-01-07T16:06:27.644Z,98939.94
2018-01-07T16:08:58.357Z,98932.05
2018-01-07T16:11:28.338Z,98936.78
2018-01-07T16:13:58.240Z,98938.14
2018-01-07T16:16:28.425Z,98951.30
2018-01-07T16:18:58.581Z,98954.73
2018-01-07T16:21:29.225Z,98950.13
2018-01-07T16:23:59.097Z,98950.08
2018-01-07T16:26:29.532Z,98958.19
2018-01-07T16:28:59.734Z,98954.39
2018-01-07T16:31:29.565Z,98957.66
2018-01-07T16:33:59.395Z,98950.31
2018-01-07T16:36:29.276Z,98948.38
2018-01-07T16:38:59.128Z,98945.09
2018-01-07T16:41:28.966Z,98949.84
2018-01-07T16:43:59.013Z,98946.48
2018-01-07T16:46:28.883Z,98953.16
2018-01-07T16:48:58.725Z,98959.25
2018-01-07T16:51:28.627Z,98963.38
2018-01-07T16:53:58.520Z,98961.25
2018-01-07T16:56:28.320Z,98959.77
2018-01-07T16:58:58.274Z,98955.27
2018-01-07T17:04:12.341Z,98963.27
2018-01-07T17:06:42.156Z,98966.67
2018-01-07T17:09:12.004Z,98962.53
2018-01-07T17:11:41.916Z,98971.93
2018-01-07T17:14:11.804Z,98976.39
2018-01-07T17:16:41.961Z,98979.94
2018-01-07T17:19:12.277Z,98987.67
2018-01-07T17:21:42.094Z,98982.80
2018-01-07T17:24:11.984Z,98996.69
2018-01-07T17:26:42.252Z,99000.84
2018-01-07T17:29:13.513Z,99011.41
2018-01-07T17:31:47.823Z,99013.75
2018-01-07T17:34:19.990Z,99011.00
2018-01-07T17:36:49.955Z,99022.38
2018-01-07T17:39:22.246Z,99026.45
2018-01-07T17:41:52.148Z,99024.11
2018-01-07T17:44:23.492Z,99024.50
2018-01-07T17:46:56.106Z,99022.06
2018-01-07T17:49:25.977Z,99029.41
2018-01-07T17:51:57.658Z,99027.20
2018-01-07T17:54:27.508Z,99021.59
2018-01-07T17:56:57.330Z,99016.08
2018-01-07T17:59:27.183Z,99006.09
2018-01-07T18:02:08.572Z,99005.72
2018-01-07T18:04:40.632Z,99005.44
2018-01-07T18:07:11.950Z,99001.57
2018-01-07T18:09:41.871Z,99003.95
2018-01-07T18:12:11.749Z,99008.84
2018-01-07T18:14:41.570Z,99017.95
2018-01-07T18:17:12.334Z,99010.16
2018-01-07T18:19:42.170Z,99004.72
2018-01-07T18:22:12.505Z,99000.31
2018-01-07T18:24:43.470Z,99010.16
2018-01-07T18:27:13.347Z,99013.15
2018-01-07T18:29:43.281Z,99017.95
2018-01-07T18:32:13.402Z,99014.39
2018-01-07T18:34:43.445Z,99009.80
2018-01-07T18:37:13.309Z,99017.41
2018-01-07T18:39:43.346Z,99011.51
2018-01-07T18:42:14.227Z,99018.34
2018-01-07T18:44:44.099Z,99020.98
2018-01-07T18:47:13.898Z,99027.26
2018-01-07T18:49:43.789Z,99033.87
2018-01-07T18:52:13.692Z,99030.66
2018-01-07T18:54:43.717Z,99028.91
2018-01-07T18:57:14.083Z,99030.66
2018-01-07T18:59:43.997Z,99035.44
2018-01-07T19:02:13.542Z,99033.91
2018-01-07T19:04:43.384Z,99034.36
2018-01-07T19:07:13.155Z,99027.67
2018-01-07T19:09:43.163Z,99023.88
2018-01-07T19:12:13.226Z,99025.39
2018-01-07T19:14:43.117Z,99014.57
2018-01-07T19:17:13.082Z,99022.99
2018-01-07T19:22:18.478Z,99027.23
2018-01-07T19:24:49.278Z,99034.09
2018-01-07T19:29:53.327Z,99035.69
2018-01-07T19:35:00.007Z,99044.88
2018-01-07T19:43:15.107Z,99032.35
2018-01-07T19:45:45.262Z,99034.00
2018-01-07T19:48:17.581Z,99045.54
2018-01-07T19:50:47.890Z,99050.48
2018-01-07T19:53:18.194Z,99041.66
2018-01-07T19:55:48.537Z,99048.34
2018-01-07T20:00:56.851Z,99058.66
2018-01-07T20:03:27.838Z,99047.23
2018-01-07T20:05:58.704Z,99048.91
2018-01-07T20:08:28.638Z,99053.48
2018-01-07T20:13:48.265Z,99065.64
2018-01-07T20:19:11.004Z,99073.13
2018-01-07T20:21:40.961Z,99078.30
2018-01-07T20:26:49.271Z,99080.94
2018-01-07T20:29:20.719Z,99085.84
2018-01-07T20:31:50.587Z,99079.17
2018-01-07T20:34:20.531Z,99072.77
2018-01-07T20:36:51.640Z,99069.36
2018-01-07T20:39:21.852Z,99070.19
2018-01-07T20:41:51.762Z,99075.45
2018-01-07T20:44:22.459Z,99078.61
2018-01-07T20:46:52.310Z,99085.42
2018-01-07T20:49:22.808Z,99087.98
2018-01-07T20:51:55.373Z,99096.93
2018-01-07T20:54:25.573Z,99098.81
2018-01-07T20:56:57.575Z,99089.92
2018-01-07T20:59:29.133Z,99093.73
2018-01-07T21:12:37.956Z,99076.78
2018-01-07T21:15:07.934Z,99078.47
2018-01-07T21:17:38.082Z,99078.88
2018-01-07T21:20:09.090Z,99084.12
2018-01-07T21:22:39.027Z,99087.03
2018-01-07T21:25:09.246Z,99087.09
2018-01-07T21:27:39.233Z,99076.49
2018-01-07T21:30:09.198Z,99080.48
2018-01-07T21:32:39.443Z,99082.86
2018-01-07T21:35:09.740Z,99083.52
2018-01-07T21:37:40.052Z,99087.20
2018-01-07T21:40:13.233Z,99085.38
2018-01-07T21:42:43.347Z,99086.12
2018-01-07T21:45:13.548Z,99063.47
2018-01-07T21:47:44.596Z,99088.47
2018-01-07T21:50:14.977Z,99085.84
2018-01-07T21:52:45.205Z,99085.17
2018-01-07T21:55:15.692Z,99094.47
2018-01-07T21:57:47.185Z,99094.68
2018-01-07T22:00:40.430Z,99097.41
2018-01-07T22:03:22.325Z,99086.72
2018-01-07T22:05:56.299Z,99085.26
2018-01-07T22:08:26.516Z,99094.87
2018-01-07T22:10:59.163Z,99102.61
2018-01-07T22:16:03.296Z,99110.53
2018-01-07T22:18:33.192Z,99114.97
2018-01-07T22:21:03.115Z,99112.07
2018-01-07T22:23:33.020Z,99115.35
2018-01-07T22:26:03.198Z,99108.22
2018-01-07T22:28:33.127Z,99104.79
2018-01-07T22:31:03.061Z,99111.95
2018-01-07T22:33:32.969Z,99113.26
2018-01-07T22:36:03.163Z,99115.35
2018-01-07T22:38:33.056Z,99113.26
2018-01-07T22:41:03.370Z,99109.05
2018-01-07T22:43:33.724Z,99111.48
2018-01-07T22:46:03.403Z,99118.00
2018-01-07T22:48:33.354Z,99111.61
2018-01-07T22:51:03.225Z,99112.16
2018-01-07T22:53:33.104Z,99112.27
2018-01-07T22:56:03.019Z,99112.56
2018-01-07T22:58:33.072Z,99116.19
2018-01-07T23:01:08.389Z,99115.45
2018-01-07T23:03:38.124Z,99118.73
2018-01-07T23:06:08.024Z,99111.78
2018-01-07T23:08:38.027Z,99107.41
2018-01-07T23:11:08.074Z,99115.45
2018-01-07T23:13:37.960Z,99113.60
2018-01-07T23:16:10.010Z,99109.75
2018-01-07T23:18:46.838Z,99106.55
2018-01-07T23:21:16.708Z,99099.84
2018-01-07T23:23:46.580Z,99097.06
2018-01-07T23:26:16.868Z,99104.59
2018-01-07T23:28:46.701Z,99106.91
2018-01-07T23:31:16.603Z,99109.24
2018-01-07T23:33:46.463Z,99102.61
2018-01-07T23:36:16.198Z,99100.27
2018-01-07T23:38:46.079Z,99099.92
2018-01-07T23:41:16.020Z,99098.03
2018-01-07T23:43:45.916Z,99101.20
2018-01-07T23:46:15.977Z,99104.67
2018-01-07T23:48:45.851Z,99111.90
2018-01-07T23:51:15.755Z,99117.37
2018-01-07T23:53:45.636Z,99105.37
2018-01-07T23:56:15.536Z,99105.88
2018-01-07T23:58:45.392Z,99100.72
